Time;durP1;ratioP1;P1;durP2;ratioP2;P2;SDS_P1;SDS_P2;PMS_P1;PMS_P2;Temp;Humidity;BMP_temperature;BMP_pressure;BME280_temperature;BME280_humidity;BME280_pressure;Samples;Min_cycle;Max_cycle;Signal;HPM_P1;HPM_P2
2023/03/06 00:00:22;;;;;;;9.67;6.27;;;;;;;4.71;54.94;97468.72;5040369;28;20109;-64
2023/03/06 00:02:48;;;;;;;12.43;7.00;;;;;;;4.30;54.71;97434.97;5039755;28;20048;-64
2023/03/06 00:05:17;;;;;;;11.43;7.03;;;;;;;4.36;55.01;97465.78;5023965;28;20098;-64
2023/03/06 00:07:43;;;;;;;13.30;7.30;;;;;;;4.44;55.09;97471.00;5039958;28;20044;-65
2023/03/06 00:10:13;;;;;;;10.90;6.80;;;;;;;4.85;54.62;97469.75;5040131;28;20048;-64
2023/03/06 00:12:40;;;;;;;12.30;7.10;;;;;;;4.48;54.05;97472.28;5056366;28;20607;-64
2023/03/06 00:15:06;;;;;;;10.30;6.10;;;;;;;4.43;54.09;97478.06;5007092;28;20480;-67
2023/03/06 00:17:34;;;;;;;9.77;5.73;;;;;;;4.46;54.56;97471.66;5023730;28;20041;-64
2023/03/06 00:20:00;;;;;;;9.50;5.87;;;;;;;4.19;54.42;97461.59;5023495;28;20560;-64
2023/03/06 00:22:29;;;;;;;9.33;5.70;;;;;;;4.44;54.94;97465.75;5023695;28;20094;-64
2023/03/06 00:24:56;;;;;;;8.67;5.53;;;;;;;4.23;54.86;97468.16;5006912;28;20044;-64
2023/03/06 00:27:25;;;;;;;9.80;6.00;;;;;;;4.25;54.55;97464.38;5056742;28;20391;-64
2023/03/06 00:29:57;;;;;;;8.57;5.63;;;;;;;4.47;55.11;97463.63;5022832;28;20064;-65
2023/03/06 00:32:24;;;;;;;10.50;5.80;;;;;;;4.25;54.40;97466.16;5072867;28;20043;-65
2023/03/06 00:34:52;;;;;;;9.93;5.40;;;;;;;4.47;54.19;97468.03;5023056;28;20051;-65
2023/03/06 00:37:18;;;;;;;8.97;5.97;;;;;;;4.31;54.05;97466.31;5039695;28;20125;-64
2023/03/06 00:39:53;;;;;;;9.40;5.37;;;;;;;4.15;54.16;97471.63;5026643;28;20095;-65
2023/03/06 00:42:21;;;;;;;8.57;5.03;;;;;;;3.89;54.67;97473.69;5033098;28;20106;-65
2023/03/06 00:44:48;;;;;;;9.40;5.80;;;;;;;3.96;54.82;97465.97;5038475;28;20051;-65
2023/03/06 00:47:20;;;;;;;9.47;4.90;;;;;;;3.87;55.13;97466.97;5023070;28;20047;-65
2023/03/06 00:49:46;;;;;;;7.80;4.97;;;;;;;3.85;54.92;97461.91;5054547;28;20036;-67
2023/03/06 00:52:12;;;;;;;8.43;5.10;;;;;;;3.99;55.15;97463.00;5042767;28;20147;-64
2023/03/06 00:54:39;;;;;;;8.40;5.20;;;;;;;4.02;54.95;97463.47;5042431;28;20036;-64
2023/03/06 00:57:08;;;;;;;9.13;4.73;;;;;;;3.89;54.61;97462.38;5022963;28;20059;-64
2023/03/06 00:59:34;;;;;;;7.73;4.83;;;;;;;3.88;55.17;97463.34;5051301;28;20060;-64
2023/03/06 01:02:02;;;;;;;7.60;4.30;;;;;;;3.86;55.18;97460.09;5041704;28;20421;-64
2023/03/06 01:04:28;;;;;;;8.20;4.57;;;;;;;3.76;55.08;97468.16;5025146;28;20040;-64
2023/03/06 01:06:54;;;;;;;6.93;4.57;;;;;;;3.73;54.95;97459.78;5042027;28;20036;-65
2023/03/06 01:09:20;;;;;;;8.03;4.57;;;;;;;3.88;55.12;97466.81;5042366;28;20044;-63
2023/03/06 01:11:52;;;;;;;7.37;4.53;;;;;;;3.80;54.84;97466.03;5044889;28;20052;-64
2023/03/06 01:14:26;;;;;;;8.30;4.40;;;;;;;3.93;54.62;97467.13;5042212;28;20085;-64
2023/03/06 01:16:55;;;;;;;8.00;4.80;;;;;;;3.72;54.54;97468.66;5058691;28;20078;-64
2023/03/06 01:19:22;;;;;;;7.67;4.40;;;;;;;3.83;54.62;97471.75;5042375;28;20051;-65
2023/03/06 01:21:54;;;;;;;7.50;4.57;;;;;;;3.78;54.79;97468.00;5058863;28;20040;-64
2023/03/06 01:24:21;;;;;;;7.10;4.30;;;;;;;3.41;55.11;97472.00;5041867;28;20052;-64
2023/03/06 01:26:47;;;;;;;5.73;4.00;;;;;;;3.47;55.56;97476.56;5041790;28;20044;-64
2023/03/06 01:29:13;;;;;;;8.60;4.43;;;;;;;3.57;55.70;97463.28;5041937;28;20036;-64
2023/03/06 01:31:39;;;;;;;6.23;4.43;;;;;;;3.56;55.51;97468.69;5042016;28;20134;-64
2023/03/06 01:34:05;;;;;;;9.20;5.17;;;;;;;3.63;55.01;97474.94;5033493;28;20194;-68
2023/03/06 01:36:37;;;;;;;6.83;4.43;;;;;;;3.49;54.89;97474.59;5025534;28;20047;-64
2023/03/06 01:39:06;;;;;;;7.63;4.37;;;;;;;3.82;55.16;97485.88;5058613;28;20040;-64
2023/03/06 01:41:32;;;;;;;6.90;4.37;;;;;;;3.54;55.26;97481.97;5058481;28;20055;-64
2023/03/06 01:43:58;;;;;;;6.87;4.50;;;;;;;3.55;55.18;97477.56;5024209;28;20404;-64
2023/03/06 01:46:40;;;;;;;8.27;4.93;;;;;;;3.87;56.53;97480.94;5041269;28;20405;-65
2023/03/06 01:49:15;;;;;;;7.83;4.73;;;;;;;3.89;55.79;97476.31;5041861;28;20071;-65
2023/03/06 01:52:23;;;;;;;8.47;4.57;;;;;;;4.33;55.08;97481.91;5058153;28;20364;-65
2023/03/06 01:54:52;;;;;;;7.03;4.30;;;;;;;4.03;54.68;97482.69;4978377;28;20053;-64
2023/03/06 01:57:23;;;;;;;8.97;4.83;;;;;;;4.19;54.69;97480.00;4977835;28;20108;-64
2023/03/06 01:59:58;;;;;;;6.60;4.23;;;;;;;4.17;54.74;97489.84;5030621;28;20058;-65
2023/03/06 02:02:30;;;;;;;9.60;5.10;;;;;;;3.85;54.78;97487.31;5059018;28;20040;-66
2023/03/06 02:04:57;;;;;;;10.07;5.07;;;;;;;4.08;54.40;97486.44;5041175;28;20050;-64
2023/03/06 02:07:26;;;;;;;11.47;4.70;;;;;;;4.03;53.77;97485.31;5025398;28;20054;-65
2023/03/06 02:09:58;;;;;;;7.60;5.17;;;;;;;3.94;54.12;97483.69;5040649;28;20093;-64
2023/03/06 02:12:25;;;;;;;9.83;5.27;;;;;;;4.06;54.05;97484.97;5041362;28;20071;-64
2023/03/06 02:14:51;;;;;;;10.07;5.00;;;;;;;4.07;54.49;97491.84;5024390;28;20062;-64
2023/03/06 02:17:19;;;;;;;8.20;5.13;;;;;;;4.26;54.52;97491.47;5056787;28;20044;-65
2023/03/06 02:20:09;;;;;;;10.10;5.50;;;;;;;4.49;54.29;97477.38;5040699;28;20509;-64
2023/03/06 02:22:42;;;;;;;8.82;4.72;;;;;;;4.43;54.09;97491.19;5041058;28;20044;-69
2023/03/06 02:25:39;;;;;;;8.43;5.13;;;;;;;4.48;54.34;97491.53;5024345;28;20048;-64
2023/03/06 02:28:15;;;;;;;8.97;5.43;;;;;;;4.62;54.04;97485.53;5038505;28;20109;-69
2023/03/06 02:30:44;;;;;;;10.50;5.50;;;;;;;4.50;53.79;97488.72;5040554;28;20036;-64
2023/03/06 02:33:17;;;;;;;11.25;5.60;;;;;;;4.67;53.45;97487.63;5024928;28;20050;-66
2023/03/06 02:36:13;;;;;;;9.37;5.77;;;;;;;4.83;53.38;97485.72;5057450;28;20492;-65
2023/03/06 02:38:45;;;;;;;8.47;4.90;;;;;;;4.71;53.36;97487.13;5023852;28;20047;-64
2023/03/06 02:41:12;;;;;;;8.10;5.37;;;;;;;4.48;53.27;97486.25;5040520;28;20048;-64
2023/03/06 02:43:39;;;;;;;8.70;5.30;;;;;;;4.69;52.84;97486.47;5056476;28;20066;-64
2023/03/06 02:46:07;;;;;;;9.70;5.67;;;;;;;4.80;53.01;97493.97;5057252;28;20094;-64
2023/03/06 02:48:34;;;;;;;11.60;5.53;;;;;;;4.56;52.65;97488.03;5057380;28;20131;-64
2023/03/06 02:51:03;;;;;;;12.03;6.10;;;;;;;4.91;52.92;97485.66;5040497;28;20051;-64
2023/03/06 02:53:31;;;;;;;9.65;5.43;;;;;;;4.59;52.74;97485.03;5041394;28;20066;-64
2023/03/06 02:55:58;;;;;;;13.03;6.17;;;;;;;4.55;52.70;97484.56;5040317;28;20044;-64
2023/03/06 02:58:27;;;;;;;9.50;6.03;;;;;;;4.69;52.87;97480.41;5032408;28;20072;-68
2023/03/06 03:00:54;;;;;;;10.87;6.23;;;;;;;4.51;52.55;97475.41;5019343;28;20051;-64
2023/03/06 03:03:23;;;;;;;8.47;5.77;;;;;;;4.62;52.97;97482.06;5004050;28;20139;-64
2023/03/06 03:05:52;;;;;;;10.27;5.67;;;;;;;4.67;52.88;97469.22;5037226;28;20087;-64
2023/03/06 03:08:27;;;;;;;11.13;6.13;;;;;;;4.92;52.98;97484.66;5069126;28;20254;-66
2023/03/06 03:11:00;;;;;;;12.67;6.00;;;;;;;4.83;53.06;97487.53;5037440;28;20470;-64
2023/03/06 03:13:31;;;;;;;10.13;5.60;;;;;;;4.92;52.93;97491.75;5037968;28;20063;-64
2023/03/06 03:16:05;;;;;;;9.37;5.97;;;;;;;5.08;53.02;97489.81;5020392;28;20049;-65
2023/03/06 03:18:34;;;;;;;10.03;6.10;;;;;;;4.66;53.17;97491.22;5021043;28;20139;-64
2023/03/06 03:21:12;;;;;;;12.80;6.53;;;;;;;5.13;53.42;97482.22;5037533;28;20076;-64
2023/03/06 03:23:41;;;;;;;13.63;6.23;;;;;;;4.81;52.91;97492.16;5020246;28;20040;-65
2023/03/06 03:26:10;;;;;;;8.40;5.30;;;;;;;5.08;53.45;97487.19;5020012;28;20052;-66
2023/03/06 03:28:39;;;;;;;10.40;5.87;;;;;;;4.73;53.10;97486.94;5036179;28;20131;-66
2023/03/06 03:31:13;;;;;;;11.10;6.03;;;;;;;4.83;53.26;97487.53;5020085;28;20044;-69
2023/03/06 03:33:40;;;;;;;10.27;6.27;;;;;;;4.88;53.58;97483.38;5033029;28;20043;-65
2023/03/06 03:36:10;;;;;;;12.03;5.83;;;;;;;5.14;53.58;97485.66;5020107;28;20079;-67
2023/03/06 03:38:40;;;;;;;11.90;6.47;;;;;;;4.71;53.49;97479.22;5036730;28;20045;-67
2023/03/06 03:41:06;;;;;;;11.30;6.70;;;;;;;4.49;53.46;97487.09;5003120;28;20048;-70
2023/03/06 03:43:32;;;;;;;10.50;6.23;;;;;;;4.65;53.80;97490.44;5003223;28;20110;-67
2023/03/06 03:45:59;;;;;;;14.07;6.50;;;;;;;4.57;54.26;97495.72;5036221;28;20045;-66
2023/03/06 03:48:28;;;;;;;10.17;6.10;;;;;;;4.76;54.32;97494.47;5020079;28;20044;-67
2023/03/06 03:51:03;;;;;;;11.43;6.63;;;;;;;5.07;54.12;97493.44;4986838;28;20072;-70
2023/03/06 03:53:29;;;;;;;11.33;6.97;;;;;;;4.62;54.33;97488.16;5019703;28;20044;-65
2023/03/06 03:55:55;;;;;;;10.30;6.00;;;;;;;4.52;54.34;97494.63;5018896;28;20048;-68
2023/03/06 03:58:21;;;;;;;14.57;6.27;;;;;;;4.74;54.38;97488.56;5036161;28;20146;-66
2023/03/06 04:00:48;;;;;;;13.83;6.47;;;;;;;4.82;54.09;97491.97;5000838;28;20052;-67
2023/03/06 04:03:14;;;;;;;11.53;5.93;;;;;;;4.78;53.80;97492.50;5003194;28;20041;-67
2023/03/06 04:05:43;;;;;;;11.50;6.53;;;;;;;4.84;53.88;97486.53;5019621;28;20114;-66
2023/03/06 04:08:12;;;;;;;12.03;6.47;;;;;;;4.74;53.48;97493.81;5003758;28;20056;-66
2023/03/06 04:10:41;;;;;;;9.80;5.90;;;;;;;4.75;53.78;97482.34;5019645;28;20106;-65
2023/03/06 04:13:10;;;;;;;10.77;5.90;;;;;;;4.84;53.94;97491.81;5035988;28;20055;-65
2023/03/06 04:15:40;;;;;;;10.63;6.10;;;;;;;4.91;53.95;97493.56;5036508;28;20079;-65
2023/03/06 04:18:06;;;;;;;9.33;6.03;;;;;;;4.86;53.31;97495.06;5019374;28;20499;-67
2023/03/06 04:20:32;;;;;;;10.77;5.63;;;;;;;4.88;53.63;97498.34;5019611;28;20121;-69
2023/03/06 04:22:59;;;;;;;11.77;6.27;;;;;;;4.68;54.36;97497.97;5035634;28;20052;-66
2023/03/06 04:25:26;;;;;;;9.40;5.47;;;;;;;4.84;54.39;97486.53;5018652;28;20045;-66
2023/03/06 04:27:51;;;;;;;9.57;5.90;;;;;;;4.88;54.33;97485.19;5019005;28;20048;-66
2023/03/06 04:30:18;;;;;;;8.37;5.53;;;;;;;4.92;54.27;97489.94;5035353;28;20048;-66
2023/03/06 04:32:44;;;;;;;11.67;5.27;;;;;;;4.94;54.13;97493.22;5035392;28;20125;-68
2023/03/06 04:35:11;;;;;;;8.10;5.20;;;;;;;4.90;54.25;97485.84;5002726;28;20059;-68
2023/03/06 04:37:46;;;;;;;8.90;5.43;;;;;;;4.97;54.34;97489.41;5036519;28;20075;-68
2023/03/06 04:40:20;;;;;;;10.63;5.50;;;;;;;5.30;54.32;97493.44;5003600;28;20075;-67
2023/03/06 04:42:46;;;;;;;11.80;5.87;;;;;;;5.01;54.12;97485.44;5022201;28;20495;-67
2023/03/06 04:45:13;;;;;;;10.37;6.03;;;;;;;5.08;54.10;97492.44;5038903;28;20127;-67
2023/03/06 04:47:39;;;;;;;9.83;5.33;;;;;;;4.95;54.04;97494.03;5005930;28;20071;-67
2023/03/06 04:50:06;;;;;;;9.57;5.83;;;;;;;5.10;53.82;97497.53;5021071;28;20076;-69
2023/03/06 04:52:32;;;;;;;9.57;5.93;;;;;;;4.93;54.08;97491.59;5022281;28;20162;-67
2023/03/06 04:54:58;;;;;;;11.07;5.17;;;;;;;4.89;53.90;97492.06;5038715;28;20043;-67
2023/03/06 04:57:24;;;;;;;11.63;6.10;;;;;;;4.90;54.07;97489.31;5005930;28;20048;-67
2023/03/06 04:59:50;;;;;;;11.53;6.23;;;;;;;4.81;53.71;97494.78;5031488;28;20080;-68
2023/03/06 05:02:16;;;;;;;11.07;6.33;;;;;;;4.96;54.16;97496.50;5022003;28;20109;-67
2023/03/06 05:04:43;;;;;;;11.03;5.33;;;;;;;4.90;54.01;97491.09;5022237;28;20041;-66
2023/03/06 05:07:10;;;;;;;11.10;5.50;;;;;;;5.02;53.66;97498.41;5022014;28;20460;-66
2023/03/06 05:09:37;;;;;;;9.70;5.10;;;;;;;4.94;53.36;97501.09;5038300;28;20044;-67
2023/03/06 05:12:04;;;;;;;9.93;4.87;;;;;;;5.04;53.50;97501.66;5075610;28;20047;-68
2023/03/06 05:14:30;;;;;;;9.23;5.17;;;;;;;5.04;53.24;97499.03;5047065;28;20115;-71
2023/03/06 05:16:56;;;;;;;9.20;4.57;;;;;;;5.08;53.09;97502.16;5038004;28;20124;-69
2023/03/06 05:19:22;;;;;;;6.90;4.67;;;;;;;5.22;53.07;97499.59;5039163;28;20044;-69
2023/03/06 05:21:48;;;;;;;8.07;4.40;;;;;;;5.27;52.74;97506.13;5040432;28;20051;-71
2023/03/06 05:24:14;;;;;;;9.27;4.50;;;;;;;5.32;52.99;97501.94;5063410;28;20546;-69
2023/03/06 05:26:40;;;;;;;6.93;4.40;;;;;;;5.34;52.56;97499.97;5060950;28;20130;-69
2023/03/06 05:29:07;;;;;;;7.33;4.40;;;;;;;5.40;52.60;97503.72;5061516;28;20035;-71
2023/03/06 05:31:33;;;;;;;7.33;4.73;;;;;;;5.45;52.33;97506.63;5061610;28;20071;-70
2023/03/06 05:33:59;;;;;;;7.80;4.17;;;;;;;5.48;52.46;97507.09;5044750;28;20458;-69
2023/03/06 05:36:25;;;;;;;11.40;4.23;;;;;;;5.44;52.28;97513.72;5044994;28;20189;-69
2023/03/06 05:38:51;;;;;;;6.70;4.20;;;;;;;5.53;52.05;97523.19;5044449;28;20040;-69
2023/03/06 05:41:17;;;;;;;6.03;4.00;;;;;;;5.54;52.10;97510.81;5061446;28;20070;-68
2023/03/06 05:43:44;;;;;;;6.63;4.23;;;;;;;5.65;51.58;97521.75;5050527;28;20092;-68
2023/03/06 05:46:10;;;;;;;6.50;3.90;;;;;;;5.44;51.43;97529.50;5034454;28;20048;-69
2023/03/06 05:48:36;;;;;;;7.33;3.50;;;;;;;5.36;52.03;97524.31;5033609;28;20050;-69
2023/03/06 05:51:03;;;;;;;6.87;3.73;;;;;;;5.46;51.66;97521.44;5045055;28;20089;-70
2023/03/06 05:53:29;;;;;;;5.87;3.83;;;;;;;5.20;51.67;97532.31;5074122;28;20071;-68
2023/03/06 05:56:00;;;;;;;6.17;2.90;;;;;;;5.42;51.77;97523.59;5040875;28;20047;-68
2023/03/06 05:58:28;;;;;;;6.32;3.13;;;;;;;5.38;51.98;97530.22;5040687;28;20048;-70
2023/03/06 06:00:54;;;;;;;4.13;3.33;;;;;;;5.12;51.84;97525.28;5057465;28;20051;-69
2023/03/06 06:03:20;;;;;;;5.43;3.00;;;;;;;5.15;52.13;97530.22;5057939;28;20056;-70
2023/03/06 06:05:46;;;;;;;4.93;3.60;;;;;;;5.37;52.41;97535.63;5040797;28;20051;-70
2023/03/06 06:08:15;;;;;;;4.93;3.50;;;;;;;5.93;52.31;97536.00;5024392;28;20447;-70
2023/03/06 06:10:40;;;;;;;4.07;3.17;;;;;;;5.92;50.87;97536.97;5024882;28;20042;-69
2023/03/06 06:13:09;;;;;;;4.40;2.97;;;;;;;6.04;50.15;97519.72;5024325;28;20695;-69
2023/03/06 06:15:42;;;;;;;3.87;3.17;;;;;;;5.75;50.11;97537.31;5052205;28;20114;-69
2023/03/06 06:18:08;;;;;;;5.53;3.43;;;;;;;5.80;51.03;97542.81;5024786;28;20043;-69
2023/03/06 06:20:36;;;;;;;4.43;3.13;;;;;;;5.85;50.97;97543.16;5025225;28;20047;-70
2023/03/06 06:23:02;;;;;;;4.47;3.03;;;;;;;5.68;50.78;97533.72;5041514;28;20142;-69
2023/03/06 06:25:28;;;;;;;5.07;3.43;;;;;;;5.82;50.67;97535.59;5058172;28;20051;-69
2023/03/06 06:28:02;;;;;;;4.40;3.30;;;;;;;6.18;50.17;97534.72;5041004;28;20104;-68
2023/03/06 06:30:28;;;;;;;3.90;2.93;;;;;;;5.95;49.56;97535.81;5058032;28;20044;-69
2023/03/06 06:32:54;;;;;;;5.27;3.20;;;;;;;5.86;50.30;97540.34;5041054;28;20040;-68
2023/03/06 06:35:20;;;;;;;4.13;2.67;;;;;;;5.90;50.06;97543.44;5057735;28;20040;-68
2023/03/06 06:37:47;;;;;;;7.13;2.87;;;;;;;6.11;50.09;97539.09;5074197;28;20400;-69
2023/03/06 06:40:13;;;;;;;5.17;3.23;;;;;;;5.62;50.20;97539.72;5074391;28;20071;-68
2023/03/06 06:42:39;;;;;;;4.20;3.17;;;;;;;5.49;51.13;97548.19;5040800;28;20517;-68
2023/03/06 06:45:06;;;;;;;4.20;3.17;;;;;;;5.96;50.41;97542.72;5016674;28;20036;-77
2023/03/06 06:47:33;;;;;;;3.73;3.10;;;;;;;6.10;49.81;97555.09;5058038;28;20040;-68
2023/03/06 06:49:59;;;;;;;5.70;3.27;;;;;;;6.13;49.20;97558.19;5040008;28;20040;-68
2023/03/06 06:52:25;;;;;;;4.27;3.07;;;;;;;6.36;49.23;97553.66;5057533;28;20557;-68
2023/03/06 06:54:51;;;;;;;5.70;3.27;;;;;;;6.43;49.01;97549.28;5040788;28;20503;-68
2023/03/06 06:57:17;;;;;;;3.50;3.00;;;;;;;6.41;48.76;97553.09;5057366;28;20043;-68
2023/03/06 06:59:43;;;;;;;3.67;2.50;;;;;;;5.94;49.16;97561.34;5057087;28;20450;-67
2023/03/06 07:02:11;;;;;;;4.37;2.50;;;;;;;5.64;50.35;97556.16;5024117;28;20036;-68
2023/03/06 07:04:38;;;;;;;6.57;3.07;;;;;;;6.02;50.93;97549.91;5054197;28;20110;-69
2023/03/06 07:07:05;;;;;;;4.37;3.10;;;;;;;5.79;50.55;97552.56;5037281;28;20041;-69
2023/03/06 07:09:31;;;;;;;6.47;3.40;;;;;;;5.97;50.49;97552.25;5054018;28;20113;-68
2023/03/06 07:11:57;;;;;;;8.57;3.63;;;;;;;6.36;49.64;97555.47;5035648;28;20496;-69
2023/03/06 07:14:24;;;;;;;8.23;3.43;;;;;;;6.53;48.57;97555.06;5036841;28;20094;-69
2023/03/06 07:16:53;;;;;;;5.03;3.73;;;;;;;7.04;48.06;97565.66;5051736;28;20044;-70
2023/03/06 07:19:19;;;;;;;8.40;2.90;;;;;;;7.03;46.51;97558.75;5046319;28;20038;-71
2023/03/06 07:21:45;;;;;;;5.53;2.70;;;;;;;6.99;46.57;97568.00;5044765;28;20127;-69
2023/03/06 07:24:11;;;;;;;5.47;2.83;;;;;;;6.88;46.03;97577.22;5036112;28;20545;-70
2023/03/06 07:26:37;;;;;;;3.17;2.77;;;;;;;6.86;45.90;97558.13;5020016;28;20036;-69
2023/03/06 07:29:03;;;;;;;4.83;2.80;;;;;;;7.03;45.25;97567.47;5037553;28;20032;-68
2023/03/06 07:31:29;;;;;;;5.10;2.90;;;;;;;6.92;45.04;97567.94;5054954;28;20044;-72
2023/03/06 07:33:55;;;;;;;4.57;2.80;;;;;;;7.11;45.17;97571.78;5040465;28;20047;-66
2023/03/06 07:36:22;;;;;;;5.10;2.70;;;;;;;7.32;45.17;97574.47;5052058;28;20109;-65
2023/03/06 07:38:48;;;;;;;3.97;2.60;;;;;;;6.99;44.56;97575.94;5054760;28;20040;-69
2023/03/06 07:41:15;;;;;;;4.40;2.30;;;;;;;6.74;45.53;97575.44;5021602;28;20035;-66
2023/03/06 07:43:42;;;;;;;2.50;2.30;;;;;;;6.07;45.93;97576.53;5034716;28;20036;-67
2023/03/06 07:46:08;;;;;;;2.80;2.50;;;;;;;6.72;46.21;97572.97;5021018;28;20044;-66
2023/03/06 07:48:36;;;;;;;3.63;2.40;;;;;;;6.38;46.10;97580.63;5021980;28;20043;-68
2023/03/06 07:51:05;;;;;;;3.17;2.50;;;;;;;7.17;45.32;97577.16;5070182;28;20063;-67
2023/03/06 07:53:31;;;;;;;2.93;2.50;;;;;;;6.81;45.02;97581.63;5036299;28;20512;-67
2023/03/06 07:55:57;;;;;;;6.97;2.60;;;;;;;7.18;44.24;97583.25;5054161;28;20113;-68
2023/03/06 07:58:25;;;;;;;3.67;2.60;;;;;;;7.38;43.48;97593.00;5020641;28;20101;-67
2023/03/06 08:00:51;;;;;;;3.00;2.13;;;;;;;7.13;43.63;97585.63;5037057;28;20502;-67
2023/03/06 08:03:18;;;;;;;3.53;2.47;;;;;;;7.07;43.72;97584.56;5013104;28;20446;-66
2023/03/06 08:05:44;;;;;;;3.33;2.53;;;;;;;6.81;44.87;97590.34;5064666;28;20068;-67
2023/03/06 08:08:11;;;;;;;3.53;2.60;;;;;;;7.00;44.23;97585.47;5037397;28;20083;-66
2023/03/06 08:10:37;;;;;;;3.57;2.67;;;;;;;6.84;44.23;97591.81;5063209;28;20044;-68
2023/03/06 08:13:03;;;;;;;4.67;2.60;;;;;;;7.07;44.25;97589.03;5017971;28;20039;-67
2023/03/06 08:15:29;;;;;;;4.10;2.63;;;;;;;6.65;45.15;97593.19;5054641;28;20142;-66
2023/03/06 08:17:56;;;;;;;3.63;2.20;;;;;;;6.87;46.09;97594.06;5041896;28;20032;-67
2023/03/06 08:20:21;;;;;;;5.17;2.30;;;;;;;7.20;44.79;97597.91;5046715;28;20045;-68
2023/03/06 08:22:49;;;;;;;4.50;2.50;;;;;;;7.12;43.83;97594.56;5042045;28;20426;-68
2023/03/06 08:25:15;;;;;;;5.50;2.60;;;;;;;7.15;44.81;97592.34;5041401;28;20104;-66
2023/03/06 08:27:42;;;;;;;6.70;2.60;;;;;;;7.42;43.80;97596.09;5031348;28;20419;-66
2023/03/06 08:30:08;;;;;;;7.70;2.57;;;;;;;7.70;44.06;97600.47;5055467;28;20479;-67
2023/03/06 08:32:35;;;;;;;8.43;2.20;;;;;;;7.80;43.25;97600.94;5072011;28;20043;-69
2023/03/06 08:35:03;;;;;;;2.40;1.90;;;;;;;7.82;42.35;97600.75;5033473;28;20403;-66
2023/03/06 08:37:31;;;;;;;4.67;2.30;;;;;;;7.77;42.15;97601.31;5036250;28;20601;-67
2023/03/06 08:39:57;;;;;;;5.30;2.27;;;;;;;7.24;42.53;97587.78;5041216;28;20136;-66
2023/03/06 08:42:25;;;;;;;5.43;2.17;;;;;;;6.57;43.65;97595.91;5056552;28;20066;-66
2023/03/06 08:44:51;;;;;;;2.90;2.00;;;;;;;6.28;45.03;97593.28;5057346;28;20147;-67
2023/03/06 08:47:17;;;;;;;6.10;1.77;;;;;;;6.28;43.88;97588.00;5040999;28;20060;-66
2023/03/06 08:49:43;;;;;;;1.90;1.70;;;;;;;5.93;44.69;97586.06;5061042;28;20401;-66
2023/03/06 08:52:10;;;;;;;2.43;1.60;;;;;;;6.08;44.79;97594.78;5055543;28;21132;-67
2023/03/06 08:54:35;;;;;;;2.93;1.50;;;;;;;6.38;43.95;97600.91;5032769;28;20040;-73
2023/03/06 08:57:02;;;;;;;1.40;1.30;;;;;;;6.22;44.08;97599.28;5025723;28;20246;-67
2023/03/06 08:59:28;;;;;;;2.17;1.50;;;;;;;6.18;44.09;97605.09;5071367;28;20048;-68
2023/03/06 09:01:53;;;;;;;3.87;1.50;;;;;;;6.02;44.66;97600.78;5037994;28;20118;-66
2023/03/06 09:04:19;;;;;;;3.47;1.50;;;;;;;6.41;44.41;97604.00;5024642;28;20068;-67
2023/03/06 09:06:45;;;;;;;5.07;1.70;;;;;;;6.34;43.39;97599.63;5022608;28;20036;-67
2023/03/06 09:09:11;;;;;;;2.90;1.43;;;;;;;6.78;43.45;97608.38;5049446;28;20047;-66
2023/03/06 09:11:37;;;;;;;2.33;1.70;;;;;;;7.23;42.23;97613.38;5059364;28;20040;-67
2023/03/06 09:14:04;;;;;;;2.70;1.80;;;;;;;7.39;41.23;97620.25;5028631;28;20047;-66
2023/03/06 09:16:31;;;;;;;1.80;1.57;;;;;;;7.68;41.19;97617.50;5041057;28;20055;-66
2023/03/06 09:18:57;;;;;;;1.63;1.40;;;;;;;7.42;40.33;97622.50;5057157;28;20032;-67
2023/03/06 09:21:24;;;;;;;1.50;1.30;;;;;;;7.84;41.06;97618.03;5024527;28;20040;-66
2023/03/06 09:23:50;;;;;;;1.73;1.40;;;;;;;7.65;40.71;97628.44;5037204;28;20040;-66
2023/03/06 09:26:16;;;;;;;2.27;1.50;;;;;;;6.97;41.82;97614.88;5019674;28;20043;-66
2023/03/06 09:28:42;;;;;;;5.37;1.60;;;;;;;7.17;42.02;97615.91;5034979;28;20583;-67
2023/03/06 09:31:14;;;;;;;1.47;1.37;;;;;;;7.58;41.54;97627.56;5056092;28;20059;-67
2023/03/06 09:33:40;;;;;;;1.70;1.60;;;;;;;7.90;41.35;97621.78;5033156;28;20044;-67
2023/03/06 09:36:07;;;;;;;2.63;1.70;;;;;;;7.66;40.93;97630.88;5044900;28;20040;-69
2023/03/06 09:38:34;;;;;;;2.23;1.50;;;;;;;7.73;40.75;97637.06;5023688;28;20468;-66
2023/03/06 09:41:03;;;;;;;1.50;1.40;;;;;;;8.18;40.45;97630.56;5040117;28;20048;-66
2023/03/06 09:43:39;;;;;;;1.97;1.40;;;;;;;8.01;40.13;97637.13;5057055;28;20044;-65
2023/03/06 09:46:47;;;;;;;1.83;1.60;;;;;;;8.43;40.04;97631.78;5060732;28;20105;-69
2023/03/06 09:49:34;;;;;;;1.30;1.20;;;;;;;8.46;40.48;97634.03;5045587;28;20049;-67
2023/03/06 09:52:21;;;;;;;1.90;1.43;;;;;;;8.11;40.13;97625.22;5053463;28;20104;-65
2023/03/06 09:55:15;;;;;;;5.00;1.70;;;;;;;8.07;41.34;97625.78;5039405;28;20101;-65
2023/03/06 09:58:03;;;;;;;1.30;1.20;;;;;;;7.57;40.35;97636.47;5045676;28;20474;-65
2023/03/06 10:00:36;;;;;;;1.97;1.33;;;;;;;7.49;41.22;97636.63;5017415;28;20141;-65
2023/03/06 10:03:22;;;;;;;3.90;1.43;;;;;;;7.65;40.95;97623.97;5038273;28;20105;-65
2023/03/06 10:05:56;;;;;;;4.20;1.80;;;;;;;7.81;41.17;97644.06;5021555;28;20067;-65
2023/03/06 10:08:44;;;;;;;1.30;1.13;;;;;;;7.77;39.44;97634.84;5021939;28;20131;-67
2023/03/06 10:11:12;;;;;;;1.50;1.40;;;;;;;8.02;39.31;97636.09;5037267;28;20043;-65
2023/03/06 10:13:44;;;;;;;1.20;1.10;;;;;;;7.69;39.67;97642.88;5037815;28;20040;-67
2023/03/06 10:16:22;;;;;;;2.57;1.10;;;;;;;7.55;40.15;97628.75;5054414;28;20055;-66
2023/03/06 10:18:49;;;;;;;1.67;1.07;;;;;;;6.76;42.30;97629.63;5037763;28;20036;-66
2023/03/06 10:21:30;;;;;;;1.37;1.20;;;;;;;6.85;42.42;97625.09;5032211;28;20523;-66
2023/03/06 10:24:03;;;;;;;2.93;1.40;;;;;;;7.27;42.62;97638.41;5048287;28;20040;-65
2023/03/06 10:26:42;;;;;;;1.60;1.47;;;;;;;7.20;42.51;97639.31;5024684;28;20439;-66
2023/03/06 10:29:26;;;;;;;1.83;1.70;;;;;;;7.50;42.72;97635.59;5031587;28;20102;-66
2023/03/06 10:32:00;;;;;;;7.07;1.60;;;;;;;7.06;42.35;97648.09;5020614;28;20044;-65
2023/03/06 10:34:32;;;;;;;2.30;1.40;;;;;;;7.08;42.10;97646.06;5011936;28;20484;-65
2023/03/06 10:37:04;;;;;;;3.17;1.33;;;;;;;6.43;43.08;97631.00;5004539;28;20853;-66
2023/03/06 10:39:30;;;;;;;2.50;1.20;;;;;;;6.54;41.90;97641.09;5038123;28;20494;-67
2023/03/06 10:41:59;;;;;;;1.37;1.27;;;;;;;6.82;41.53;97647.38;5009977;28;20047;-66
2023/03/06 10:44:25;;;;;;;2.20;1.30;;;;;;;6.32;41.45;97649.09;5002756;28;20048;-66
2023/03/06 10:46:52;;;;;;;2.80;1.70;;;;;;;6.86;41.94;97646.00;5002560;28;20052;-68
2023/03/06 10:49:34;;;;;;;2.50;2.00;;;;;;;7.30;41.41;97624.84;5001708;28;20064;-67
2023/03/06 10:52:12;;;;;;;2.37;1.50;;;;;;;7.49;41.31;97633.97;5020629;28;20076;-67
2023/03/06 10:54:43;;;;;;;2.05;1.33;;;;;;;7.32;40.77;97645.78;5020939;28;20143;-67
2023/03/06 10:57:32;;;;;;;3.77;1.20;;;;;;;7.40;40.41;97645.63;5020383;28;20470;-68
2023/03/06 11:00:05;;;;;;;1.47;1.30;;;;;;;6.42;41.57;97647.81;5071511;28;20066;-67
2023/03/06 11:02:38;;;;;;;4.70;1.57;;;;;;;6.85;42.34;97644.38;5057510;28;20126;-67
2023/03/06 11:05:20;;;;;;;2.23;1.53;;;;;;;7.01;42.40;97648.66;5042673;28;20093;-68
2023/03/06 11:07:56;;;;;;;4.57;2.00;;;;;;;7.28;42.30;97647.13;5056616;28;20044;-67
2023/03/06 11:10:23;;;;;;;2.07;1.60;;;;;;;6.78;42.71;97646.09;5036951;28;20059;-67
2023/03/06 11:13:06;;;;;;;1.47;1.27;;;;;;;6.69;43.72;97655.09;5003214;28;20048;-68
2023/03/06 11:15:33;;;;;;;1.60;1.37;;;;;;;6.66;44.22;97663.38;5039294;28;20036;-66
2023/03/06 11:18:08;;;;;;;3.83;1.87;;;;;;;7.06;45.03;97662.09;5039160;28;20128;-67
2023/03/06 11:20:42;;;;;;;4.97;1.80;;;;;;;6.78;45.79;97648.75;5040084;28;20138;-67
2023/03/06 11:23:29;;;;;;;7.33;1.50;;;;;;;6.31;46.23;97647.44;5039688;28;20059;-67
2023/03/06 11:26:07;;;;;;;6.57;1.40;;;;;;;6.49;45.74;97650.53;5072395;28;20044;-67
2023/03/06 11:28:39;;;;;;;3.13;1.60;;;;;;;6.35;45.26;97654.00;5073631;28;20475;-67
2023/03/06 11:31:15;;;;;;;6.80;1.70;;;;;;;6.64;45.61;97657.47;5053468;28;20058;-66
2023/03/06 11:33:55;;;;;;;3.63;1.80;;;;;;;7.19;44.19;97664.09;5050011;28;20040;-67
2023/03/06 11:36:28;;;;;;;5.33;1.50;;;;;;;7.04;43.39;97660.66;5074103;28;20032;-66
2023/03/06 11:38:54;;;;;;;2.87;1.53;;;;;;;7.06;43.14;97661.28;5039358;28;20494;-66
2023/03/06 11:41:41;;;;;;;4.57;1.57;;;;;;;7.77;41.86;97662.09;5039770;28;20048;-66
2023/03/06 11:44:23;;;;;;;5.77;2.20;;;;;;;8.55;39.80;97672.53;5063217;28;20090;-67
2023/03/06 11:47:03;;;;;;;10.53;1.80;;;;;;;9.30;38.61;97667.28;5071595;28;20122;-68
2023/03/06 11:49:39;;;;;;;4.65;1.40;;;;;;;9.32;38.04;97658.13;5039657;28;20046;-68